sensor_id;sensor_type;location;lat;lon;timestamp;temperature;humidity
59651;DHT22;45954;49.768;8.636;2022-10-31T00:00:22;14.50;99.90
59651;DHT22;45954;49.768;8.636;2022-10-31T00:02:48;14.30;99.90
59651;DHT22;45954;49.768;8.636;2022-10-31T00:05:14;14.20;99.90
59651;DHT22;45954;49.768;8.636;2022-10-31T00:07:40;14.30;99.90
59651;DHT22;45954;49.768;8.636;2022-10-31T00:10:06;14.40;99.90
59651;DHT22;45954;49.768;8.636;2022-10-31T00:12:33;14.50;99.90
59651;DHT22;45954;49.768;8.636;2022-10-31T00:14:58;14.30;99.90
59651;DHT22;45954;49.768;8.636;2022-10-31T00:17:24;14.20;99.90
59651;DHT22;45954;49.768;8.636;2022-10-31T00:19:50;14.30;99.90
59651;DHT22;45954;49.768;8.636;2022-10-31T00:22:16;14.30;99.90
59651;DHT22;45954;49.768;8.636;2022-10-31T00:24:43;14.30;99.90
59651;DHT22;45954;49.768;8.636;2022-10-31T00:27:08;14.30;99.90
59651;DHT22;45954;49.768;8.636;2022-10-31T00:29:34;14.30;99.90
59651;DHT22;45954;49.768;8.636;2022-10-31T00:32:00;14.40;99.90
59651;DHT22;45954;49.768;8.636;2022-10-31T00:34:26;14.30;99.90
59651;DHT22;45954;49.768;8.636;2022-10-31T00:36:52;14.40;99.90
59651;DHT22;45954;49.768;8.636;2022-10-31T00:39:17;14.40;99.90
59651;DHT22;45954;49.768;8.636;2022-10-31T00:41:43;14.50;99.90
59651;DHT22;45954;49.768;8.636;2022-10-31T00:44:09;14.50;99.90
59651;DHT22;45954;49.768;8.636;2022-10-31T00:46:35;14.50;99.90
59651;DHT22;45954;49.768;8.636;2022-10-31T00:49:01;14.50;99.90
59651;DHT22;45954;49.768;8.636;2022-10-31T00:51:27;14.40;99.90
59651;DHT22;45954;49.768;8.636;2022-10-31T00:53:52;14.40;99.90
59651;DHT22;45954;49.768;8.636;2022-10-31T00:56:18;14.30;99.90
59651;DHT22;45954;49.768;8.636;2022-10-31T00:58:44;14.30;99.90
59651;DHT22;45954;49.768;8.636;2022-10-31T01:01:10;14.30;99.90
59651;DHT22;45954;49.768;8.636;2022-10-31T01:03:36;14.30;99.90
59651;DHT22;45954;49.768;8.636;2022-10-31T01:06:12;14.30;99.90
59651;DHT22;45954;49.768;8.636;2022-10-31T01:08:39;14.30;99.90
59651;DHT22;45954;49.768;8.636;2022-10-31T01:11:06;14.30;99.90
59651;DHT22;45954;49.768;8.636;2022-10-31T01:13:35;14.20;99.90
59651;DHT22;45954;49.768;8.636;2022-10-31T01:16:02;14.10;99.90
59651;DHT22;45954;49.768;8.636;2022-10-31T01:18:30;14.20;99.90
59651;DHT22;45954;49.768;8.636;2022-10-31T01:21:04;14.20;99.90
59651;DHT22;45954;49.768;8.636;2022-10-31T01:23:32;14.20;99.90
59651;DHT22;45954;49.768;8.636;2022-10-31T01:26:17;14.10;99.90
59651;DHT22;45954;49.768;8.636;2022-10-31T01:28:54;14.00;99.90
59651;DHT22;45954;49.768;8.636;2022-10-31T01:31:24;14.00;99.90
59651;DHT22;45954;49.768;8.636;2022-10-31T01:33:54;13.80;99.90
59651;DHT22;45954;49.768;8.636;2022-10-31T01:36:25;14.00;99.90
59651;DHT22;45954;49.768;8.636;2022-10-31T01:38:58;14.00;99.90
59651;DHT22;45954;49.768;8.636;2022-10-31T01:41:32;14.10;99.90
59651;DHT22;45954;49.768;8.636;2022-10-31T01:47:01;14.00;99.90
59651;DHT22;45954;49.768;8.636;2022-10-31T01:49:40;13.90;99.90
59651;DHT22;45954;49.768;8.636;2022-10-31T01:52:30;13.90;99.90
59651;DHT22;45954;49.768;8.636;2022-10-31T01:58:04;14.00;99.90
59651;DHT22;45954;49.768;8.636;2022-10-31T02:00:35;14.00;99.90
59651;DHT22;45954;49.768;8.636;2022-10-31T02:03:01;14.00;99.90
59651;DHT22;45954;49.768;8.636;2022-10-31T02:05:29;13.90;99.90
59651;DHT22;45954;49.768;8.636;2022-10-31T02:07:59;13.90;99.90
59651;DHT22;45954;49.768;8.636;2022-10-31T02:10:37;13.80;99.90
59651;DHT22;45954;49.768;8.636;2022-10-31T02:13:06;13.90;99.90
59651;DHT22;45954;49.768;8.636;2022-10-31T02:15:33;13.80;99.90
59651;DHT22;45954;49.768;8.636;2022-10-31T02:18:00;13.90;99.90
59651;DHT22;45954;49.768;8.636;2022-10-31T02:20:35;13.90;99.90
59651;DHT22;45954;49.768;8.636;2022-10-31T02:27:40;13.90;99.90
59651;DHT22;45954;49.768;8.636;2022-10-31T02:33:57;14.20;99.90
59651;DHT22;45954;49.768;8.636;2022-10-31T02:37:07;14.10;99.90
59651;DHT22;45954;49.768;8.636;2022-10-31T02:39:53;14.00;99.90
59651;DHT22;45954;49.768;8.636;2022-10-31T02:42:45;13.90;99.90
59651;DHT22;45954;49.768;8.636;2022-10-31T02:45:48;13.90;99.90
59651;DHT22;45954;49.768;8.636;2022-10-31T02:48:24;13.80;99.90
59651;DHT22;45954;49.768;8.636;2022-10-31T02:50:59;13.80;99.90
59651;DHT22;45954;49.768;8.636;2022-10-31T02:53:26;13.80;99.90
59651;DHT22;45954;49.768;8.636;2022-10-31T02:56:08;13.90;99.90
59651;DHT22;45954;49.768;8.636;2022-10-31T02:58:40;13.90;99.90
59651;DHT22;45954;49.768;8.636;2022-10-31T03:07:08;13.90;99.90
59651;DHT22;45954;49.768;8.636;2022-10-31T03:15:33;13.80;99.90
59651;DHT22;45954;49.768;8.636;2022-10-31T03:20:54;13.90;99.90
59651;DHT22;45954;49.768;8.636;2022-10-31T03:23:44;14.00;99.90
59651;DHT22;45954;49.768;8.636;2022-10-31T03:26:14;14.00;99.90
59651;DHT22;45954;49.768;8.636;2022-10-31T03:28:55;13.90;99.90
59651;DHT22;45954;49.768;8.636;2022-10-31T03:31:33;13.80;99.90
59651;DHT22;45954;49.768;8.636;2022-10-31T03:34:03;13.80;99.90
59651;DHT22;45954;49.768;8.636;2022-10-31T03:36:37;13.80;99.90
59651;DHT22;45954;49.768;8.636;2022-10-31T03:39:07;13.90;99.90
59651;DHT22;45954;49.768;8.636;2022-10-31T03:41:42;13.90;99.90
59651;DHT22;45954;49.768;8.636;2022-10-31T03:44:16;13.80;99.90
59651;DHT22;45954;49.768;8.636;2022-10-31T03:46:44;13.70;99.90
59651;DHT22;45954;49.768;8.636;2022-10-31T03:49:11;13.70;99.90
59651;DHT22;45954;49.768;8.636;2022-10-31T03:54:23;13.70;99.90
59651;DHT22;45954;49.768;8.636;2022-10-31T03:56:56;13.70;99.90
59651;DHT22;45954;49.768;8.636;2022-10-31T03:59:36;13.80;99.90
59651;DHT22;45954;49.768;8.636;2022-10-31T04:02:13;13.80;99.90
59651;DHT22;45954;49.768;8.636;2022-10-31T04:04:43;13.80;99.90
59651;DHT22;45954;49.768;8.636;2022-10-31T04:07:11;13.80;99.90
59651;DHT22;45954;49.768;8.636;2022-10-31T04:09:43;13.70;99.90
59651;DHT22;45954;49.768;8.636;2022-10-31T04:12:14;13.70;99.90
59651;DHT22;45954;49.768;8.636;2022-10-31T04:14:43;13.70;99.90
59651;DHT22;45954;49.768;8.636;2022-10-31T04:17:16;13.70;99.90
59651;DHT22;45954;49.768;8.636;2022-10-31T04:19:44;13.60;99.90
59651;DHT22;45954;49.768;8.636;2022-10-31T04:22:10;13.50;99.90
59651;DHT22;45954;49.768;8.636;2022-10-31T04:24:40;13.40;99.90
59651;DHT22;45954;49.768;8.636;2022-10-31T04:27:06;13.50;99.90
59651;DHT22;45954;49.768;8.636;2022-10-31T04:29:32;13.60;99.90
59651;DHT22;45954;49.768;8.636;2022-10-31T04:31:58;13.50;99.90
59651;DHT22;45954;49.768;8.636;2022-10-31T04:34:24;13.20;99.90
59651;DHT22;45954;49.768;8.636;2022-10-31T04:36:50;13.30;99.90
59651;DHT22;45954;49.768;8.636;2022-10-31T04:39:16;13.30;99.90
59651;DHT22;45954;49.768;8.636;2022-10-31T04:41:41;13.40;99.90
59651;DHT22;45954;49.768;8.636;2022-10-31T04:44:07;13.40;99.90
59651;DHT22;45954;49.768;8.636;2022-10-31T04:46:33;13.20;99.90
59651;DHT22;45954;49.768;8.636;2022-10-31T04:48:59;13.40;99.90
59651;DHT22;45954;49.768;8.636;2022-10-31T04:51:25;13.40;99.90
59651;DHT22;45954;49.768;8.636;2022-10-31T04:53:51;13.40;99.90
59651;DHT22;45954;49.768;8.636;2022-10-31T04:56:16;13.40;99.90
59651;DHT22;45954;49.768;8.636;2022-10-31T04:58:42;13.40;99.90
59651;DHT22;45954;49.768;8.636;2022-10-31T05:01:08;13.40;99.90
59651;DHT22;45954;49.768;8.636;2022-10-31T05:03:34;13.20;99.90
59651;DHT22;45954;49.768;8.636;2022-10-31T05:06:00;13.30;99.90
59651;DHT22;45954;49.768;8.636;2022-10-31T05:08:25;13.30;99.90
59651;DHT22;45954;49.768;8.636;2022-10-31T05:10:51;13.40;99.90
59651;DHT22;45954;49.768;8.636;2022-10-31T05:13:17;13.40;99.90
59651;DHT22;45954;49.768;8.636;2022-10-31T05:15:43;13.40;99.90
59651;DHT22;45954;49.768;8.636;2022-10-31T05:18:09;13.40;99.90
59651;DHT22;45954;49.768;8.636;2022-10-31T05:20:35;13.30;99.90
59651;DHT22;45954;49.768;8.636;2022-10-31T05:23:00;13.20;99.90
59651;DHT22;45954;49.768;8.636;2022-10-31T05:25:28;13.10;99.90
59651;DHT22;45954;49.768;8.636;2022-10-31T05:27:56;13.10;99.90
59651;DHT22;45954;49.768;8.636;2022-10-31T05:30:26;13.10;99.90
59651;DHT22;45954;49.768;8.636;2022-10-31T05:32:55;13.20;99.90
59651;DHT22;45954;49.768;8.636;2022-10-31T05:35:30;13.20;99.90
59651;DHT22;45954;49.768;8.636;2022-10-31T05:37:58;13.20;99.90
59651;DHT22;45954;49.768;8.636;2022-10-31T05:40:26;13.10;99.90
59651;DHT22;45954;49.768;8.636;2022-10-31T05:42:53;13.20;99.90
59651;DHT22;45954;49.768;8.636;2022-10-31T05:45:21;13.20;99.90
59651;DHT22;45954;49.768;8.636;2022-10-31T05:47:55;13.20;99.90
59651;DHT22;45954;49.768;8.636;2022-10-31T05:50:27;13.20;99.90
59651;DHT22;45954;49.768;8.636;2022-10-31T05:52:59;13.20;99.90
59651;DHT22;45954;49.768;8.636;2022-10-31T05:55:27;13.20;99.90
59651;DHT22;45954;49.768;8.636;2022-10-31T05:57:54;13.00;99.90
59651;DHT22;45954;49.768;8.636;2022-10-31T06:00:21;13.00;99.90
59651;DHT22;45954;49.768;8.636;2022-10-31T06:02:48;12.60;99.90
59651;DHT22;45954;49.768;8.636;2022-10-31T06:05:14;12.60;99.90
59651;DHT22;45954;49.768;8.636;2022-10-31T06:07:40;12.70;99.90
59651;DHT22;45954;49.768;8.636;2022-10-31T06:10:08;12.80;99.90
59651;DHT22;45954;49.768;8.636;2022-10-31T06:12:35;12.70;99.90
59651;DHT22;45954;49.768;8.636;2022-10-31T06:15:07;12.80;99.90
59651;DHT22;45954;49.768;8.636;2022-10-31T06:17:34;12.70;99.90
59651;DHT22;45954;49.768;8.636;2022-10-31T06:20:01;12.70;99.90
59651;DHT22;45954;49.768;8.636;2022-10-31T06:22:28;12.80;99.90
59651;DHT22;45954;49.768;8.636;2022-10-31T06:24:54;12.90;99.90
59651;DHT22;45954;49.768;8.636;2022-10-31T06:27:20;12.80;99.90
59651;DHT22;45954;49.768;8.636;2022-10-31T06:29:46;12.80;99.90
59651;DHT22;45954;49.768;8.636;2022-10-31T06:32:13;12.80;99.90
59651;DHT22;45954;49.768;8.636;2022-10-31T06:34:40;12.80;99.90
59651;DHT22;45954;49.768;8.636;2022-10-31T06:37:07;12.80;99.90
59651;DHT22;45954;49.768;8.636;2022-10-31T06:39:34;12.80;99.90
59651;DHT22;45954;49.768;8.636;2022-10-31T06:42:01;12.70;99.90
59651;DHT22;45954;49.768;8.636;2022-10-31T06:44:27;12.60;99.90
59651;DHT22;45954;49.768;8.636;2022-10-31T06:46:52;12.70;99.90
59651;DHT22;45954;49.768;8.636;2022-10-31T06:49:18;12.90;99.90
59651;DHT22;45954;49.768;8.636;2022-10-31T06:51:48;13.10;99.90
59651;DHT22;45954;49.768;8.636;2022-10-31T06:54:14;13.10;99.90
59651;DHT22;45954;49.768;8.636;2022-10-31T06:56:40;13.20;99.90
59651;DHT22;45954;49.768;8.636;2022-10-31T06:59:06;13.40;99.90
59651;DHT22;45954;49.768;8.636;2022-10-31T07:01:32;13.50;99.90
59651;DHT22;45954;49.768;8.636;2022-10-31T07:03:57;13.60;99.90
59651;DHT22;45954;49.768;8.636;2022-10-31T07:06:23;13.50;99.90
59651;DHT22;45954;49.768;8.636;2022-10-31T07:08:49;13.60;99.90
59651;DHT22;45954;49.768;8.636;2022-10-31T07:11:15;13.60;99.90
59651;DHT22;45954;49.768;8.636;2022-10-31T07:13:41;13.70;99.90
59651;DHT22;45954;49.768;8.636;2022-10-31T07:16:07;13.80;99.90
59651;DHT22;45954;49.768;8.636;2022-10-31T07:18:34;13.80;99.90
59651;DHT22;45954;49.768;8.636;2022-10-31T07:21:00;13.90;99.90
59651;DHT22;45954;49.768;8.636;2022-10-31T07:23:25;13.90;99.90
59651;DHT22;45954;49.768;8.636;2022-10-31T07:25:56;13.90;99.90
59651;DHT22;45954;49.768;8.636;2022-10-31T07:28:23;13.90;99.90
59651;DHT22;45954;49.768;8.636;2022-10-31T07:30:54;14.10;99.90
59651;DHT22;45954;49.768;8.636;2022-10-31T07:33:22;14.20;99.90
59651;DHT22;45954;49.768;8.636;2022-10-31T07:35:48;14.20;99.90
59651;DHT22;45954;49.768;8.636;2022-10-31T07:38:15;14.20;99.90
59651;DHT22;45954;49.768;8.636;2022-10-31T07:40:42;14.10;99.90
59651;DHT22;45954;49.768;8.636;2022-10-31T07:43:09;14.10;99.90
59651;DHT22;45954;49.768;8.636;2022-10-31T07:45:36;13.90;99.90
59651;DHT22;45954;49.768;8.636;2022-10-31T07:48:02;14.00;99.90
59651;DHT22;45954;49.768;8.636;2022-10-31T07:50:30;14.30;99.90
59651;DHT22;45954;49.768;8.636;2022-10-31T07:53:01;14.40;99.90
59651;DHT22;45954;49.768;8.636;2022-10-31T07:55:31;14.50;99.90
59651;DHT22;45954;49.768;8.636;2022-10-31T07:58:03;14.50;99.90
59651;DHT22;45954;49.768;8.636;2022-10-31T08:00:31;14.50;99.90
59651;DHT22;45954;49.768;8.636;2022-10-31T08:03:03;14.60;99.90
59651;DHT22;45954;49.768;8.636;2022-10-31T08:05:32;14.70;99.90
59651;DHT22;45954;49.768;8.636;2022-10-31T08:07:58;15.20;99.90
59651;DHT22;45954;49.768;8.636;2022-10-31T08:10:25;15.40;99.90
59651;DHT22;45954;49.768;8.636;2022-10-31T08:13:00;15.20;99.90
59651;DHT22;45954;49.768;8.636;2022-10-31T08:15:28;15.20;99.90
59651;DHT22;45954;49.768;8.636;2022-10-31T08:17:54;15.30;99.90
59651;DHT22;45954;49.768;8.636;2022-10-31T08:20:21;15.10;99.90
59651;DHT22;45954;49.768;8.636;2022-10-31T08:22:57;15.30;99.90
59651;DHT22;45954;49.768;8.636;2022-10-31T08:25:26;15.90;99.90
59651;DHT22;45954;49.768;8.636;2022-10-31T08:27:55;16.10;99.90
59651;DHT22;45954;49.768;8.636;2022-10-31T08:30:23;16.50;99.90
59651;DHT22;45954;49.768;8.636;2022-10-31T08:33:00;16.60;99.90
59651;DHT22;45954;49.768;8.636;2022-10-31T08:35:32;16.60;99.90
59651;DHT22;45954;49.768;8.636;2022-10-31T08:37:59;16.60;99.90
59651;DHT22;45954;49.768;8.636;2022-10-31T08:40:27;16.00;99.90
59651;DHT22;45954;49.768;8.636;2022-10-31T08:43:02;16.00;99.90
59651;DHT22;45954;49.768;8.636;2022-10-31T08:45:30;16.20;99.90
59651;DHT22;45954;49.768;8.636;2022-10-31T08:47:58;16.30;99.90
59651;DHT22;45954;49.768;8.636;2022-10-31T08:50:26;15.50;99.90
59651;DHT22;45954;49.768;8.636;2022-10-31T08:52:53;15.30;99.90
59651;DHT22;45954;49.768;8.636;2022-10-31T08:55:25;15.20;99.90
59651;DHT22;45954;49.768;8.636;2022-10-31T08:57:56;15.20;99.90
59651;DHT22;45954;49.768;8.636;2022-10-31T09:00:23;15.20;99.90
59651;DHT22;45954;49.768;8.636;2022-10-31T09:02:57;15.10;99.90
59651;DHT22;45954;49.768;8.636;2022-10-31T09:05:24;14.90;99.90
59651;DHT22;45954;49.768;8.636;2022-10-31T09:07:51;14.70;99.90
59651;DHT22;45954;49.768;8.636;2022-10-31T09:10:18;14.80;99.90
59651;DHT22;45954;49.768;8.636;2022-10-31T09:12:44;14.80;99.90
59651;DHT22;45954;49.768;8.636;2022-10-31T09:15:10;14.90;99.90
59651;DHT22;45954;49.768;8.636;2022-10-31T09:17:35;15.10;99.90
59651;DHT22;45954;49.768;8.636;2022-10-31T09:20:01;15.40;99.90
59651;DHT22;45954;49.768;8.636;2022-10-31T09:22:27;15.40;99.90
59651;DHT22;45954;49.768;8.636;2022-10-31T09:24:53;15.60;99.90
59651;DHT22;45954;49.768;8.636;2022-10-31T09:27:19;15.60;99.90
59651;DHT22;45954;49.768;8.636;2022-10-31T09:29:45;15.60;99.90
59651;DHT22;45954;49.768;8.636;2022-10-31T09:32:10;16.00;99.90
59651;DHT22;45954;49.768;8.636;2022-10-31T09:34:36;15.80;99.90
59651;DHT22;45954;49.768;8.636;2022-10-31T09:37:02;16.30;99.90
59651;DHT22;45954;49.768;8.636;2022-10-31T09:39:28;16.20;99.90
59651;DHT22;45954;49.768;8.636;2022-10-31T09:42:09;16.10;99.90
59651;DHT22;45954;49.768;8.636;2022-10-31T09:47:54;17.10;99.90
59651;DHT22;45954;49.768;8.636;2022-10-31T09:53:36;16.10;99.90
59651;DHT22;45954;49.768;8.636;2022-10-31T09:56:09;15.60;99.90
59651;DHT22;45954;49.768;8.636;2022-10-31T09:58:49;15.80;99.90
59651;DHT22;45954;49.768;8.636;2022-10-31T10:04:41;16.40;99.90
59651;DHT22;45954;49.768;8.636;2022-10-31T10:10:49;16.30;99.90
59651;DHT22;45954;49.768;8.636;2022-10-31T10:16:37;17.30;99.90
59651;DHT22;45954;49.768;8.636;2022-10-31T10:19:18;17.50;99.90
59651;DHT22;45954;49.768;8.636;2022-10-31T10:30:55;17.10;99.90
59651;DHT22;45954;49.768;8.636;2022-10-31T10:33:41;17.60;99.90
59651;DHT22;45954;49.768;8.636;2022-10-31T10:36:21;17.90;99.90
59651;DHT22;45954;49.768;8.636;2022-10-31T10:38:52;17.40;99.90
59651;DHT22;45954;49.768;8.636;2022-10-31T10:41:26;17.60;99.90
59651;DHT22;45954;49.768;8.636;2022-10-31T10:43:57;17.80;99.90
59651;DHT22;45954;49.768;8.636;2022-10-31T10:46:41;17.70;99.90
59651;DHT22;45954;49.768;8.636;2022-10-31T10:49:52;17.90;99.90
59651;DHT22;45954;49.768;8.636;2022-10-31T10:52:48;18.40;99.90
59651;DHT22;45954;49.768;8.636;2022-10-31T10:58:11;18.10;99.90
59651;DHT22;45954;49.768;8.636;2022-10-31T11:00:42;18.50;99.90
59651;DHT22;45954;49.768;8.636;2022-10-31T11:03:12;18.80;99.90
59651;DHT22;45954;49.768;8.636;2022-10-31T11:08:35;19.20;99.90
59651;DHT22;45954;49.768;8.636;2022-10-31T11:11:08;18.90;99.90
59651;DHT22;45954;49.768;8.636;2022-10-31T11:13:57;19.30;99.90
59651;DHT22;45954;49.768;8.636;2022-10-31T11:16:42;19.60;99.90
59651;DHT22;45954;49.768;8.636;2022-10-31T11:19:20;18.90;99.90
59651;DHT22;45954;49.768;8.636;2022-10-31T11:21:52;18.70;99.90
59651;DHT22;45954;49.768;8.636;2022-10-31T11:26:52;19.20;99.90
59651;DHT22;45954;49.768;8.636;2022-10-31T11:29:30;19.30;99.90
59651;DHT22;45954;49.768;8.636;2022-10-31T11:31:59;19.40;99.90
59651;DHT22;45954;49.768;8.636;2022-10-31T11:34:33;19.40;99.90
59651;DHT22;45954;49.768;8.636;2022-10-31T11:37:15;18.90;99.90
59651;DHT22;45954;49.768;8.636;2022-10-31T11:39:58;18.40;99.90
59651;DHT22;45954;49.768;8.636;2022-10-31T11:42:28;18.40;99.90
59651;DHT22;45954;49.768;8.636;2022-10-31T11:45:07;18.90;99.90
59651;DHT22;45954;49.768;8.636;2022-10-31T11:47:44;18.80;99.90
59651;DHT22;45954;49.768;8.636;2022-10-31T11:53:02;19.40;99.90
59651;DHT22;45954;49.768;8.636;2022-10-31T11:55:37;19.50;99.90
59651;DHT22;45954;49.768;8.636;2022-10-31T11:58:18;19.70;99.90
59651;DHT22;45954;49.768;8.636;2022-10-31T12:00:50;19.80;99.90
59651;DHT22;45954;49.768;8.636;2022-10-31T12:03:26;20.00;99.90
59651;DHT22;45954;49.768;8.636;2022-10-31T12:06:07;19.50;99.90
59651;DHT22;45954;49.768;8.636;2022-10-31T12:08:39;19.00;99.90
59651;DHT22;45954;49.768;8.636;2022-10-31T12:14:36;18.90;99.90
59651;DHT22;45954;49.768;8.636;2022-10-31T12:17:21;19.00;99.90
59651;DHT22;45954;49.768;8.636;2022-10-31T12:20:10;19.10;99.90
59651;DHT22;45954;49.768;8.636;2022-10-31T12:23:48;18.90;99.90
59651;DHT22;45954;49.768;8.636;2022-10-31T12:26:48;18.50;99.90
59651;DHT22;45954;49.768;8.636;2022-10-31T12:33:12;18.00;99.90
59651;DHT22;45954;49.768;8.636;2022-10-31T12:36:15;18.30;99.90
59651;DHT22;45954;49.768;8.636;2022-10-31T12:41:50;18.70;99.90
59651;DHT22;45954;49.768;8.636;2022-10-31T12:45:00;19.10;99.90
59651;DHT22;45954;49.768;8.636;2022-10-31T12:47:58;19.40;99.90
59651;DHT22;45954;49.768;8.636;2022-10-31T12:57:28;19.90;99.90
59651;DHT22;45954;49.768;8.636;2022-10-31T13:00:19;19.30;99.90
59651;DHT22;45954;49.768;8.636;2022-10-31T13:05:53;19.70;99.90
59651;DHT22;45954;49.768;8.636;2022-10-31T13:08:34;19.80;99.90
59651;DHT22;45954;49.768;8.636;2022-10-31T13:11:09;19.50;99.90
59651;DHT22;45954;49.768;8.636;2022-10-31T13:14:15;19.10;99.90
59651;DHT22;45954;49.768;8.636;2022-10-31T13:16:56;19.10;99.90
59651;DHT22;45954;49.768;8.636;2022-10-31T13:19:27;19.30;99.90
59651;DHT22;45954;49.768;8.636;2022-10-31T13:22:13;19.00;99.90
59651;DHT22;45954;49.768;8.636;2022-10-31T13:25:03;18.80;99.90
59651;DHT22;45954;49.768;8.636;2022-10-31T13:28:09;18.70;99.90
59651;DHT22;45954;49.768;8.636;2022-10-31T13:30:42;18.70;99.90
59651;DHT22;45954;49.768;8.636;2022-10-31T13:36:31;19.30;99.90
59651;DHT22;45954;49.768;8.636;2022-10-31T13:41:48;18.90;99.90
59651;DHT22;45954;49.768;8.636;2022-10-31T13:44:29;19.10;99.90
59651;DHT22;45954;49.768;8.636;2022-10-31T13:46:57;19.10;99.90
59651;DHT22;45954;49.768;8.636;2022-10-31T13:54:45;19.10;99.90
59651;DHT22;45954;49.768;8.636;2022-10-31T13:57:35;19.10;99.90
59651;DHT22;45954;49.768;8.636;2022-10-31T14:00:22;19.20;99.90
59651;DHT22;45954;49.768;8.636;2022-10-31T14:02:56;19.20;99.90
59651;DHT22;45954;49.768;8.636;2022-10-31T14:05:34;19.40;99.90
59651;DHT22;45954;49.768;8.636;2022-10-31T14:08:06;19.40;99.90
59651;DHT22;45954;49.768;8.636;2022-10-31T14:10:51;19.50;99.90
59651;DHT22;45954;49.768;8.636;2022-10-31T14:13:26;21.10;99.90
59651;DHT22;45954;49.768;8.636;2022-10-31T14:15:59;22.60;99.90
59651;DHT22;45954;49.768;8.636;2022-10-31T14:18:47;23.50;99.90
59651;DHT22;45954;49.768;8.636;2022-10-31T14:23:48;20.70;99.90
59651;DHT22;45954;49.768;8.636;2022-10-31T14:28:53;19.90;99.90
59651;DHT22;45954;49.768;8.636;2022-10-31T14:31:41;19.90;99.90
59651;DHT22;45954;49.768;8.636;2022-10-31T14:34:25;19.60;99.90
59651;DHT22;45954;49.768;8.636;2022-10-31T14:40:33;21.90;99.90
59651;DHT22;45954;49.768;8.636;2022-10-31T14:43:40;21.80;99.90
59651;DHT22;45954;49.768;8.636;2022-10-31T14:52:18;20.00;99.90
59651;DHT22;45954;49.768;8.636;2022-10-31T14:54:50;20.00;99.90
59651;DHT22;45954;49.768;8.636;2022-10-31T14:57:37;19.90;99.90
59651;DHT22;45954;49.768;8.636;2022-10-31T15:00:18;19.90;99.90
59651;DHT22;45954;49.768;8.636;2022-10-31T15:03:15;19.90;99.90
59651;DHT22;45954;49.768;8.636;2022-10-31T15:05:52;19.90;99.90
59651;DHT22;45954;49.768;8.636;2022-10-31T15:08:38;19.90;99.90
59651;DHT22;45954;49.768;8.636;2022-10-31T15:11:20;19.40;99.90
59651;DHT22;45954;49.768;8.636;2022-10-31T15:13:49;18.80;99.90
59651;DHT22;45954;49.768;8.636;2022-10-31T15:16:35;18.90;99.90
59651;DHT22;45954;49.768;8.636;2022-10-31T15:19:06;19.30;99.90
59651;DHT22;45954;49.768;8.636;2022-10-31T15:21:43;19.40;99.90
59651;DHT22;45954;49.768;8.636;2022-10-31T15:24:14;19.20;99.90
59651;DHT22;45954;49.768;8.636;2022-10-31T15:26:52;19.10;99.90
59651;DHT22;45954;49.768;8.636;2022-10-31T15:29:22;18.70;99.90
59651;DHT22;45954;49.768;8.636;2022-10-31T15:31:54;18.50;99.90
59651;DHT22;45954;49.768;8.636;2022-10-31T15:34:41;18.50;99.90
59651;DHT22;45954;49.768;8.636;2022-10-31T15:37:14;18.80;99.90
59651;DHT22;45954;49.768;8.636;2022-10-31T15:39:45;18.80;99.90
59651;DHT22;45954;49.768;8.636;2022-10-31T15:42:22;18.70;99.90
59651;DHT22;45954;49.768;8.636;2022-10-31T15:47:46;18.40;99.90
59651;DHT22;45954;49.768;8.636;2022-10-31T15:50:32;18.40;99.90
59651;DHT22;45954;49.768;8.636;2022-10-31T15:53:03;18.20;99.90
59651;DHT22;45954;49.768;8.636;2022-10-31T15:55:36;17.80;99.90
59651;DHT22;45954;49.768;8.636;2022-10-31T15:58:12;17.90;99.90
59651;DHT22;45954;49.768;8.636;2022-10-31T16:00:39;18.10;99.90
59651;DHT22;45954;49.768;8.636;2022-10-31T16:05:44;18.20;99.90
59651;DHT22;45954;49.768;8.636;2022-10-31T16:13:31;17.90;99.90
59651;DHT22;45954;49.768;8.636;2022-10-31T16:16:04;17.60;99.90
59651;DHT22;45954;49.768;8.636;2022-10-31T16:18:40;18.00;99.90
59651;DHT22;45954;49.768;8.636;2022-10-31T16:21:08;18.30;99.90
59651;DHT22;45954;49.768;8.636;2022-10-31T16:23:38;17.90;99.90
59651;DHT22;45954;49.768;8.636;2022-10-31T16:26:08;18.20;99.90
59651;DHT22;45954;49.768;8.636;2022-10-31T16:28:36;18.30;99.90
59651;DHT22;45954;49.768;8.636;2022-10-31T16:31:13;18.30;99.90
59651;DHT22;45954;49.768;8.636;2022-10-31T16:33:40;18.30;99.90
59651;DHT22;45954;49.768;8.636;2022-10-31T16:38:54;18.60;99.90
59651;DHT22;45954;49.768;8.636;2022-10-31T16:41:21;18.50;99.90
59651;DHT22;45954;49.768;8.636;2022-10-31T16:43:47;18.50;99.90
59651;DHT22;45954;49.768;8.636;2022-10-31T16:46:16;18.30;99.90
59651;DHT22;45954;49.768;8.636;2022-10-31T16:48:50;18.30;99.90
59651;DHT22;45954;49.768;8.636;2022-10-31T16:53:52;18.20;99.90
59651;DHT22;45954;49.768;8.636;2022-10-31T16:56:30;18.10;99.90
59651;DHT22;45954;49.768;8.636;2022-10-31T16:59:01;18.10;99.90
59651;DHT22;45954;49.768;8.636;2022-10-31T17:01:30;17.90;99.90
59651;DHT22;45954;49.768;8.636;2022-10-31T17:03:56;17.50;99.90
59651;DHT22;45954;49.768;8.636;2022-10-31T17:06:22;17.60;99.90
59651;DHT22;45954;49.768;8.636;2022-10-31T17:08:48;17.60;99.90
59651;DHT22;45954;49.768;8.636;2022-10-31T17:11:21;18.00;99.90
59651;DHT22;45954;49.768;8.636;2022-10-31T17:13:48;18.20;99.90
59651;DHT22;45954;49.768;8.636;2022-10-31T17:16:14;18.20;99.90
59651;DHT22;45954;49.768;8.636;2022-10-31T17:18:40;17.70;99.90
59651;DHT22;45954;49.768;8.636;2022-10-31T17:21:20;17.70;99.90
59651;DHT22;45954;49.768;8.636;2022-10-31T17:23:48;18.00;99.90
59651;DHT22;45954;49.768;8.636;2022-10-31T17:26:15;18.10;99.90
59651;DHT22;45954;49.768;8.636;2022-10-31T17:28:41;18.00;99.90
59651;DHT22;45954;49.768;8.636;2022-10-31T17:33:48;17.40;99.90
59651;DHT22;45954;49.768;8.636;2022-10-31T17:36:15;17.30;99.90
59651;DHT22;45954;49.768;8.636;2022-10-31T17:38:40;16.90;99.90
59651;DHT22;45954;49.768;8.636;2022-10-31T17:41:07;17.00;99.90
59651;DHT22;45954;49.768;8.636;2022-10-31T17:43:33;17.10;99.90
59651;DHT22;45954;49.768;8.636;2022-10-31T17:45:59;17.00;99.90
59651;DHT22;45954;49.768;8.636;2022-10-31T17:48:26;17.10;99.90
59651;DHT22;45954;49.768;8.636;2022-10-31T17:50:52;17.20;99.90
59651;DHT22;45954;49.768;8.636;2022-10-31T17:53:18;16.80;99.90
59651;DHT22;45954;49.768;8.636;2022-10-31T17:55:44;16.50;99.90
59651;DHT22;45954;49.768;8.636;2022-10-31T17:58:10;17.00;99.90
59651;DHT22;45954;49.768;8.636;2022-10-31T18:00:40;16.80;99.90
59651;DHT22;45954;49.768;8.636;2022-10-31T18:03:06;16.30;99.90
59651;DHT22;45954;49.768;8.636;2022-10-31T18:05:33;16.40;99.90
59651;DHT22;45954;49.768;8.636;2022-10-31T18:08:00;16.60;99.90
59651;DHT22;45954;49.768;8.636;2022-10-31T18:10:26;16.50;99.90
59651;DHT22;45954;49.768;8.636;2022-10-31T18:12:51;16.20;99.90